sensor_id;sensor_type;location;lat;lon;timestamp;P1;durP1;ratioP1;P2;durP2;ratioP2
19519;SDS011;9904;52.246;20.898;2023-11-21T00:02:25;54.37;;;23.80;;
19519;SDS011;9904;52.246;20.898;2023-11-21T00:04:53;63.77;;;24.33;;
19519;SDS011;9904;52.246;20.898;2023-11-21T00:07:20;59.30;;;23.33;;
19519;SDS011;9904;52.246;20.898;2023-11-21T00:09:47;60.63;;;24.43;;
19519;SDS011;9904;52.246;20.898;2023-11-21T00:12:14;61.00;;;24.90;;
19519;SDS011;9904;52.246;20.898;2023-11-21T00:14:41;59.07;;;22.90;;
19519;SDS011;9904;52.246;20.898;2023-11-21T00:17:08;66.67;;;24.83;;
19519;SDS011;9904;52.246;20.898;2023-11-21T00:19:35;68.13;;;23.77;;
19519;SDS011;9904;52.246;20.898;2023-11-21T00:22:02;65.47;;;23.67;;
19519;SDS011;9904;52.246;20.898;2023-11-21T00:24:29;59.30;;;22.33;;
19519;SDS011;9904;52.246;20.898;2023-11-21T00:26:55;69.63;;;24.10;;
19519;SDS011;9904;52.246;20.898;2023-11-21T00:29:22;68.33;;;25.27;;
19519;SDS011;9904;52.246;20.898;2023-11-21T00:31:50;62.90;;;24.00;;
19519;SDS011;9904;52.246;20.898;2023-11-21T00:34:17;72.80;;;24.53;;
19519;SDS011;9904;52.246;20.898;2023-11-21T00:36:44;68.60;;;24.37;;
19519;SDS011;9904;52.246;20.898;2023-11-21T00:39:10;70.20;;;25.67;;
19519;SDS011;9904;52.246;20.898;2023-11-21T00:41:38;71.87;;;24.63;;
19519;SDS011;9904;52.246;20.898;2023-11-21T00:44:04;72.30;;;24.30;;
19519;SDS011;9904;52.246;20.898;2023-11-21T00:46:32;77.23;;;26.27;;
19519;SDS011;9904;52.246;20.898;2023-11-21T00:48:59;72.40;;;26.93;;
19519;SDS011;9904;52.246;20.898;2023-11-21T00:51:26;71.97;;;26.10;;
19519;SDS011;9904;52.246;20.898;2023-11-21T00:53:52;72.77;;;27.17;;
19519;SDS011;9904;52.246;20.898;2023-11-21T00:56:19;68.20;;;27.17;;
19519;SDS011;9904;52.246;20.898;2023-11-21T00:58:46;66.87;;;26.70;;
19519;SDS011;9904;52.246;20.898;2023-11-21T01:01:16;68.47;;;26.17;;
19519;SDS011;9904;52.246;20.898;2023-11-21T01:03:43;67.13;;;27.60;;
19519;SDS011;9904;52.246;20.898;2023-11-21T01:06:09;68.30;;;26.27;;
19519;SDS011;9904;52.246;20.898;2023-11-21T01:08:39;67.23;;;26.13;;
19519;SDS011;9904;52.246;20.898;2023-11-21T01:11:06;65.70;;;26.07;;
19519;SDS011;9904;52.246;20.898;2023-11-21T01:13:34;70.87;;;26.67;;
19519;SDS011;9904;52.246;20.898;2023-11-21T01:16:02;67.83;;;26.33;;
19519;SDS011;9904;52.246;20.898;2023-11-21T01:18:30;68.63;;;27.00;;
19519;SDS011;9904;52.246;20.898;2023-11-21T01:20:56;75.60;;;29.27;;
19519;SDS011;9904;52.246;20.898;2023-11-21T01:23:24;68.63;;;27.97;;
19519;SDS011;9904;52.246;20.898;2023-11-21T01:25:50;67.97;;;27.57;;
19519;SDS011;9904;52.246;20.898;2023-11-21T01:28:19;67.93;;;27.40;;
19519;SDS011;9904;52.246;20.898;2023-11-21T01:31:10;67.07;;;27.17;;
19519;SDS011;9904;52.246;20.898;2023-11-21T01:33:38;61.07;;;25.63;;
19519;SDS011;9904;52.246;20.898;2023-11-21T01:36:06;70.20;;;26.03;;
19519;SDS011;9904;52.246;20.898;2023-11-21T01:38:33;72.40;;;27.43;;
19519;SDS011;9904;52.246;20.898;2023-11-21T01:40:59;70.60;;;26.97;;
19519;SDS011;9904;52.246;20.898;2023-11-21T01:43:27;69.73;;;26.87;;
19519;SDS011;9904;52.246;20.898;2023-11-21T01:45:54;65.40;;;26.60;;
19519;SDS011;9904;52.246;20.898;2023-11-21T01:48:24;70.03;;;28.97;;
19519;SDS011;9904;52.246;20.898;2023-11-21T01:50:51;69.70;;;28.03;;
19519;SDS011;9904;52.246;20.898;2023-11-21T01:53:18;76.27;;;28.67;;
19519;SDS011;9904;52.246;20.898;2023-11-21T01:55:45;74.30;;;29.23;;
19519;SDS011;9904;52.246;20.898;2023-11-21T01:58:12;70.73;;;28.03;;
19519;SDS011;9904;52.246;20.898;2023-11-21T02:00:40;64.83;;;25.47;;
19519;SDS011;9904;52.246;20.898;2023-11-21T02:03:06;64.77;;;26.60;;
19519;SDS011;9904;52.246;20.898;2023-11-21T02:05:33;69.43;;;27.33;;
19519;SDS011;9904;52.246;20.898;2023-11-21T02:08:00;67.77;;;28.77;;
19519;SDS011;9904;52.246;20.898;2023-11-21T02:10:31;65.50;;;27.27;;
19519;SDS011;9904;52.246;20.898;2023-11-21T02:12:58;59.97;;;25.63;;
19519;SDS011;9904;52.246;20.898;2023-11-21T02:15:26;65.77;;;26.50;;
19519;SDS011;9904;52.246;20.898;2023-11-21T02:18:22;67.87;;;26.27;;
19519;SDS011;9904;52.246;20.898;2023-11-21T02:20:50;77.07;;;27.10;;
19519;SDS011;9904;52.246;20.898;2023-11-21T02:23:17;64.40;;;26.93;;
19519;SDS011;9904;52.246;20.898;2023-11-21T02:25:44;68.30;;;25.83;;
19519;SDS011;9904;52.246;20.898;2023-11-21T02:28:15;65.53;;;27.17;;
19519;SDS011;9904;52.246;20.898;2023-11-21T02:30:54;63.97;;;26.23;;
19519;SDS011;9904;52.246;20.898;2023-11-21T02:33:31;66.07;;;25.90;;
19519;SDS011;9904;52.246;20.898;2023-11-21T02:36:01;65.23;;;26.07;;
19519;SDS011;9904;52.246;20.898;2023-11-21T02:38:28;59.87;;;24.57;;
19519;SDS011;9904;52.246;20.898;2023-11-21T02:40:57;61.70;;;24.50;;
19519;SDS011;9904;52.246;20.898;2023-11-21T02:43:35;57.27;;;23.40;;
19519;SDS011;9904;52.246;20.898;2023-11-21T02:46:05;56.77;;;22.83;;
19519;SDS011;9904;52.246;20.898;2023-11-21T02:48:32;55.87;;;22.97;;
19519;SDS011;9904;52.246;20.898;2023-11-21T02:50:58;55.13;;;24.30;;
19519;SDS011;9904;52.246;20.898;2023-11-21T02:53:49;58.37;;;23.30;;
19519;SDS011;9904;52.246;20.898;2023-11-21T02:56:17;52.97;;;22.53;;
19519;SDS011;9904;52.246;20.898;2023-11-21T02:58:44;63.73;;;24.13;;
19519;SDS011;9904;52.246;20.898;2023-11-21T03:01:10;56.23;;;23.47;;
19519;SDS011;9904;52.246;20.898;2023-11-21T03:03:38;51.30;;;23.23;;
19519;SDS011;9904;52.246;20.898;2023-11-21T03:06:06;58.27;;;23.47;;
19519;SDS011;9904;52.246;20.898;2023-11-21T03:08:33;54.70;;;22.50;;
19519;SDS011;9904;52.246;20.898;2023-11-21T03:11:09;54.33;;;23.20;;
19519;SDS011;9904;52.246;20.898;2023-11-21T03:13:59;55.17;;;23.53;;
19519;SDS011;9904;52.246;20.898;2023-11-21T03:16:50;53.90;;;24.23;;
19519;SDS011;9904;52.246;20.898;2023-11-21T03:19:41;60.90;;;24.37;;
19519;SDS011;9904;52.246;20.898;2023-11-21T03:22:09;56.40;;;22.90;;
19519;SDS011;9904;52.246;20.898;2023-11-21T03:24:36;56.10;;;22.90;;
19519;SDS011;9904;52.246;20.898;2023-11-21T03:27:03;56.60;;;23.27;;
19519;SDS011;9904;52.246;20.898;2023-11-21T03:29:30;53.13;;;22.90;;
19519;SDS011;9904;52.246;20.898;2023-11-21T03:31:57;57.73;;;22.73;;
19519;SDS011;9904;52.246;20.898;2023-11-21T03:34:27;56.70;;;23.80;;
19519;SDS011;9904;52.246;20.898;2023-11-21T03:36:55;57.77;;;23.37;;
19519;SDS011;9904;52.246;20.898;2023-11-21T03:39:21;56.47;;;23.87;;
19519;SDS011;9904;52.246;20.898;2023-11-21T03:41:49;58.67;;;22.87;;
19519;SDS011;9904;52.246;20.898;2023-11-21T03:44:42;51.57;;;22.97;;
19519;SDS011;9904;52.246;20.898;2023-11-21T03:47:10;54.60;;;22.40;;
19519;SDS011;9904;52.246;20.898;2023-11-21T03:49:37;56.57;;;23.10;;
19519;SDS011;9904;52.246;20.898;2023-11-21T03:52:04;49.33;;;21.13;;
19519;SDS011;9904;52.246;20.898;2023-11-21T03:54:31;43.73;;;19.50;;
19519;SDS011;9904;52.246;20.898;2023-11-21T03:56:57;47.97;;;21.83;;
19519;SDS011;9904;52.246;20.898;2023-11-21T03:59:24;49.03;;;21.23;;
19519;SDS011;9904;52.246;20.898;2023-11-21T04:01:51;53.80;;;22.13;;
19519;SDS011;9904;52.246;20.898;2023-11-21T04:04:17;56.37;;;25.13;;
19519;SDS011;9904;52.246;20.898;2023-11-21T04:07:08;58.57;;;25.50;;
19519;SDS011;9904;52.246;20.898;2023-11-21T04:09:35;66.47;;;25.40;;
19519;SDS011;9904;52.246;20.898;2023-11-21T04:12:02;53.37;;;21.50;;
19519;SDS011;9904;52.246;20.898;2023-11-21T04:14:29;50.23;;;21.07;;
19519;SDS011;9904;52.246;20.898;2023-11-21T04:17:20;44.83;;;18.97;;
19519;SDS011;9904;52.246;20.898;2023-11-21T04:19:50;45.03;;;19.57;;
19519;SDS011;9904;52.246;20.898;2023-11-21T04:22:17;41.63;;;18.50;;
19519;SDS011;9904;52.246;20.898;2023-11-21T04:24:44;44.70;;;17.87;;
19519;SDS011;9904;52.246;20.898;2023-11-21T04:27:10;40.63;;;17.23;;
19519;SDS011;9904;52.246;20.898;2023-11-21T04:29:37;38.67;;;16.27;;
19519;SDS011;9904;52.246;20.898;2023-11-21T04:32:06;38.30;;;16.83;;
19519;SDS011;9904;52.246;20.898;2023-11-21T04:34:33;41.40;;;17.17;;
19519;SDS011;9904;52.246;20.898;2023-11-21T04:37:00;40.17;;;16.77;;
19519;SDS011;9904;52.246;20.898;2023-11-21T04:39:27;42.57;;;17.17;;
19519;SDS011;9904;52.246;20.898;2023-11-21T04:41:54;37.53;;;17.37;;
19519;SDS011;9904;52.246;20.898;2023-11-21T04:44:24;43.17;;;17.20;;
19519;SDS011;9904;52.246;20.898;2023-11-21T04:46:50;40.07;;;17.60;;
19519;SDS011;9904;52.246;20.898;2023-11-21T04:49:26;40.27;;;16.90;;
19519;SDS011;9904;52.246;20.898;2023-11-21T04:51:53;40.17;;;17.13;;
19519;SDS011;9904;52.246;20.898;2023-11-21T04:54:20;42.50;;;17.97;;
19519;SDS011;9904;52.246;20.898;2023-11-21T04:56:50;36.20;;;16.27;;
19519;SDS011;9904;52.246;20.898;2023-11-21T04:59:17;38.70;;;17.43;;
19519;SDS011;9904;52.246;20.898;2023-11-21T05:01:43;39.07;;;16.60;;
19519;SDS011;9904;52.246;20.898;2023-11-21T05:04:10;39.03;;;16.83;;
19519;SDS011;9904;52.246;20.898;2023-11-21T05:06:39;39.10;;;17.20;;
19519;SDS011;9904;52.246;20.898;2023-11-21T05:09:07;38.70;;;15.50;;
19519;SDS011;9904;52.246;20.898;2023-11-21T05:12:01;36.87;;;15.67;;
19519;SDS011;9904;52.246;20.898;2023-11-21T05:14:30;37.47;;;15.60;;
19519;SDS011;9904;52.246;20.898;2023-11-21T05:16:56;36.43;;;15.73;;
19519;SDS011;9904;52.246;20.898;2023-11-21T05:19:27;32.13;;;14.47;;
19519;SDS011;9904;52.246;20.898;2023-11-21T05:21:54;30.90;;;15.23;;
19519;SDS011;9904;52.246;20.898;2023-11-21T05:24:21;33.03;;;14.80;;
19519;SDS011;9904;52.246;20.898;2023-11-21T05:26:47;32.43;;;14.97;;
19519;SDS011;9904;52.246;20.898;2023-11-21T05:29:14;35.97;;;15.90;;
19519;SDS011;9904;52.246;20.898;2023-11-21T05:31:41;33.43;;;14.50;;
19519;SDS011;9904;52.246;20.898;2023-11-21T05:34:10;28.87;;;13.17;;
19519;SDS011;9904;52.246;20.898;2023-11-21T05:36:36;31.50;;;13.93;;
19519;SDS011;9904;52.246;20.898;2023-11-21T05:39:07;32.37;;;14.83;;
19519;SDS011;9904;52.246;20.898;2023-11-21T05:41:33;30.87;;;13.07;;
19519;SDS011;9904;52.246;20.898;2023-11-21T05:44:00;27.37;;;13.40;;
19519;SDS011;9904;52.246;20.898;2023-11-21T05:46:28;31.87;;;14.13;;
19519;SDS011;9904;52.246;20.898;2023-11-21T05:48:55;32.20;;;14.63;;
19519;SDS011;9904;52.246;20.898;2023-11-21T05:51:22;30.50;;;14.33;;
19519;SDS011;9904;52.246;20.898;2023-11-21T05:53:51;30.30;;;13.43;;
19519;SDS011;9904;52.246;20.898;2023-11-21T05:56:18;28.17;;;13.07;;
19519;SDS011;9904;52.246;20.898;2023-11-21T05:58:44;25.87;;;12.57;;
19519;SDS011;9904;52.246;20.898;2023-11-21T06:01:11;31.17;;;14.63;;
19519;SDS011;9904;52.246;20.898;2023-11-21T06:03:39;31.70;;;14.37;;
19519;SDS011;9904;52.246;20.898;2023-11-21T06:06:06;32.47;;;14.63;;
19519;SDS011;9904;52.246;20.898;2023-11-21T06:08:33;28.70;;;13.60;;
19519;SDS011;9904;52.246;20.898;2023-11-21T06:10:59;31.83;;;14.47;;
19519;SDS011;9904;52.246;20.898;2023-11-21T06:13:27;31.53;;;14.60;;
19519;SDS011;9904;52.246;20.898;2023-11-21T06:15:54;28.80;;;14.20;;
19519;SDS011;9904;52.246;20.898;2023-11-21T06:18:45;31.50;;;14.40;;
19519;SDS011;9904;52.246;20.898;2023-11-21T06:21:14;39.20;;;14.97;;
19519;SDS011;9904;52.246;20.898;2023-11-21T06:23:46;36.27;;;16.37;;
19519;SDS011;9904;52.246;20.898;2023-11-21T06:26:16;33.77;;;14.73;;
19519;SDS011;9904;52.246;20.898;2023-11-21T06:28:46;34.37;;;14.93;;
19519;SDS011;9904;52.246;20.898;2023-11-21T06:31:13;31.90;;;15.03;;
19519;SDS011;9904;52.246;20.898;2023-11-21T06:33:40;32.97;;;15.27;;
19519;SDS011;9904;52.246;20.898;2023-11-21T06:36:07;36.50;;;15.77;;
19519;SDS011;9904;52.246;20.898;2023-11-21T06:38:35;31.53;;;14.83;;
19519;SDS011;9904;52.246;20.898;2023-11-21T06:41:01;33.10;;;15.13;;
19519;SDS011;9904;52.246;20.898;2023-11-21T06:43:28;31.83;;;15.23;;
19519;SDS011;9904;52.246;20.898;2023-11-21T06:45:57;32.77;;;14.60;;
19519;SDS011;9904;52.246;20.898;2023-11-21T06:48:47;38.03;;;15.43;;
19519;SDS011;9904;52.246;20.898;2023-11-21T06:51:15;31.53;;;14.63;;
19519;SDS011;9904;52.246;20.898;2023-11-21T06:53:42;33.70;;;15.20;;
19519;SDS011;9904;52.246;20.898;2023-11-21T06:56:15;33.90;;;15.90;;
19519;SDS011;9904;52.246;20.898;2023-11-21T06:58:45;32.20;;;13.97;;
19519;SDS011;9904;52.246;20.898;2023-11-21T07:01:16;32.53;;;14.47;;
19519;SDS011;9904;52.246;20.898;2023-11-21T07:03:43;35.20;;;14.97;;
19519;SDS011;9904;52.246;20.898;2023-11-21T07:06:10;33.77;;;14.33;;
19519;SDS011;9904;52.246;20.898;2023-11-21T07:08:37;32.33;;;14.17;;
19519;SDS011;9904;52.246;20.898;2023-11-21T07:11:04;33.90;;;15.80;;
19519;SDS011;9904;52.246;20.898;2023-11-21T07:13:32;35.43;;;14.67;;
19519;SDS011;9904;52.246;20.898;2023-11-21T07:15:59;30.30;;;15.33;;
19519;SDS011;9904;52.246;20.898;2023-11-21T07:18:26;29.97;;;14.90;;
19519;SDS011;9904;52.246;20.898;2023-11-21T07:21:01;38.17;;;15.23;;
19519;SDS011;9904;52.246;20.898;2023-11-21T07:23:29;32.97;;;14.63;;
19519;SDS011;9904;52.246;20.898;2023-11-21T07:25:56;36.10;;;15.00;;
19519;SDS011;9904;52.246;20.898;2023-11-21T07:28:24;38.23;;;15.40;;
19519;SDS011;9904;52.246;20.898;2023-11-21T07:30:52;33.47;;;14.50;;
19519;SDS011;9904;52.246;20.898;2023-11-21T07:33:19;37.93;;;15.03;;
19519;SDS011;9904;52.246;20.898;2023-11-21T07:35:47;41.40;;;16.50;;
19519;SDS011;9904;52.246;20.898;2023-11-21T07:38:14;33.40;;;14.33;;
19519;SDS011;9904;52.246;20.898;2023-11-21T07:40:45;39.07;;;16.30;;
19519;SDS011;9904;52.246;20.898;2023-11-21T07:43:12;35.37;;;15.40;;
19519;SDS011;9904;52.246;20.898;2023-11-21T07:45:39;33.87;;;15.27;;
19519;SDS011;9904;52.246;20.898;2023-11-21T07:48:06;33.33;;;15.10;;
19519;SDS011;9904;52.246;20.898;2023-11-21T07:50:33;35.37;;;15.10;;
19519;SDS011;9904;52.246;20.898;2023-11-21T07:52:59;36.47;;;15.80;;
19519;SDS011;9904;52.246;20.898;2023-11-21T07:55:26;37.70;;;14.93;;
19519;SDS011;9904;52.246;20.898;2023-11-21T07:57:53;31.63;;;14.23;;
19519;SDS011;9904;52.246;20.898;2023-11-21T08:00:24;33.70;;;14.33;;
19519;SDS011;9904;52.246;20.898;2023-11-21T08:02:56;33.23;;;15.50;;
19519;SDS011;9904;52.246;20.898;2023-11-21T08:05:23;37.70;;;15.33;;
19519;SDS011;9904;52.246;20.898;2023-11-21T08:08:02;35.17;;;14.83;;
19519;SDS011;9904;52.246;20.898;2023-11-21T08:10:29;29.73;;;14.60;;
19519;SDS011;9904;52.246;20.898;2023-11-21T08:12:56;32.17;;;15.07;;
19519;SDS011;9904;52.246;20.898;2023-11-21T08:15:23;31.37;;;14.80;;
19519;SDS011;9904;52.246;20.898;2023-11-21T08:17:50;35.97;;;15.47;;
19519;SDS011;9904;52.246;20.898;2023-11-21T08:20:17;33.47;;;14.47;;
19519;SDS011;9904;52.246;20.898;2023-11-21T08:22:45;31.33;;;14.00;;
19519;SDS011;9904;52.246;20.898;2023-11-21T08:25:13;32.67;;;14.77;;
19519;SDS011;9904;52.246;20.898;2023-11-21T08:27:44;34.97;;;14.33;;
19519;SDS011;9904;52.246;20.898;2023-11-21T08:30:11;30.53;;;14.50;;
19519;SDS011;9904;52.246;20.898;2023-11-21T08:32:39;34.90;;;14.53;;
19519;SDS011;9904;52.246;20.898;2023-11-21T08:35:07;36.03;;;13.70;;
19519;SDS011;9904;52.246;20.898;2023-11-21T08:37:34;29.20;;;14.37;;
19519;SDS011;9904;52.246;20.898;2023-11-21T08:40:04;34.00;;;14.43;;
19519;SDS011;9904;52.246;20.898;2023-11-21T08:42:35;31.07;;;13.97;;
19519;SDS011;9904;52.246;20.898;2023-11-21T08:45:02;42.83;;;15.73;;
19519;SDS011;9904;52.246;20.898;2023-11-21T08:47:29;31.50;;;14.93;;
19519;SDS011;9904;52.246;20.898;2023-11-21T08:49:56;35.83;;;15.30;;
19519;SDS011;9904;52.246;20.898;2023-11-21T08:52:25;33.30;;;15.37;;
19519;SDS011;9904;52.246;20.898;2023-11-21T08:54:52;33.07;;;15.17;;
19519;SDS011;9904;52.246;20.898;2023-11-21T08:57:24;38.87;;;17.00;;
19519;SDS011;9904;52.246;20.898;2023-11-21T08:59:52;37.47;;;16.50;;
19519;SDS011;9904;52.246;20.898;2023-11-21T09:02:22;34.50;;;16.37;;
19519;SDS011;9904;52.246;20.898;2023-11-21T09:04:53;40.00;;;15.93;;
19519;SDS011;9904;52.246;20.898;2023-11-21T09:07:22;31.47;;;15.03;;
19519;SDS011;9904;52.246;20.898;2023-11-21T09:09:49;29.37;;;14.70;;
19519;SDS011;9904;52.246;20.898;2023-11-21T09:12:17;34.57;;;15.10;;
19519;SDS011;9904;52.246;20.898;2023-11-21T09:14:44;33.73;;;15.33;;
19519;SDS011;9904;52.246;20.898;2023-11-21T09:17:11;36.20;;;16.10;;
19519;SDS011;9904;52.246;20.898;2023-11-21T09:19:38;32.40;;;15.63;;
19519;SDS011;9904;52.246;20.898;2023-11-21T09:22:05;36.33;;;17.27;;
19519;SDS011;9904;52.246;20.898;2023-11-21T09:24:33;39.17;;;17.40;;
19519;SDS011;9904;52.246;20.898;2023-11-21T09:27:02;39.43;;;17.63;;
19519;SDS011;9904;52.246;20.898;2023-11-21T09:29:31;38.47;;;16.03;;
19519;SDS011;9904;52.246;20.898;2023-11-21T09:31:58;36.37;;;16.63;;
19519;SDS011;9904;52.246;20.898;2023-11-21T09:34:28;31.23;;;15.77;;
19519;SDS011;9904;52.246;20.898;2023-11-21T09:36:58;35.87;;;15.47;;
19519;SDS011;9904;52.246;20.898;2023-11-21T09:39:25;35.90;;;16.60;;
19519;SDS011;9904;52.246;20.898;2023-11-21T09:41:52;34.77;;;15.17;;
19519;SDS011;9904;52.246;20.898;2023-11-21T09:44:51;33.60;;;14.33;;
19519;SDS011;9904;52.246;20.898;2023-11-21T09:47:25;30.17;;;14.03;;
19519;SDS011;9904;52.246;20.898;2023-11-21T09:49:52;34.47;;;15.07;;
19519;SDS011;9904;52.246;20.898;2023-11-21T09:52:25;36.30;;;14.87;;
19519;SDS011;9904;52.246;20.898;2023-11-21T09:54:55;33.77;;;15.03;;
19519;SDS011;9904;52.246;20.898;2023-11-21T09:57:24;35.97;;;14.03;;
19519;SDS011;9904;52.246;20.898;2023-11-21T09:59:52;29.17;;;15.10;;
19519;SDS011;9904;52.246;20.898;2023-11-21T10:02:26;31.93;;;15.37;;
19519;SDS011;9904;52.246;20.898;2023-11-21T10:04:58;31.10;;;14.50;;
19519;SDS011;9904;52.246;20.898;2023-11-21T10:07:30;33.00;;;14.67;;
19519;SDS011;9904;52.246;20.898;2023-11-21T10:10:00;35.67;;;15.10;;
19519;SDS011;9904;52.246;20.898;2023-11-21T10:12:28;32.03;;;15.30;;
19519;SDS011;9904;52.246;20.898;2023-11-21T10:15:07;31.73;;;14.60;;
19519;SDS011;9904;52.246;20.898;2023-11-21T10:17:42;35.30;;;15.47;;
19519;SDS011;9904;52.246;20.898;2023-11-21T10:20:11;32.80;;;15.30;;
19519;SDS011;9904;52.246;20.898;2023-11-21T10:22:40;37.30;;;16.70;;
19519;SDS011;9904;52.246;20.898;2023-11-21T10:25:12;37.07;;;16.83;;
19519;SDS011;9904;52.246;20.898;2023-11-21T10:27:46;38.37;;;18.47;;
19519;SDS011;9904;52.246;20.898;2023-11-21T10:30:18;33.67;;;16.47;;
19519;SDS011;9904;52.246;20.898;2023-11-21T10:32:44;41.53;;;17.43;;
19519;SDS011;9904;52.246;20.898;2023-11-21T10:35:11;38.57;;;17.43;;
19519;SDS011;9904;52.246;20.898;2023-11-21T10:37:41;36.30;;;16.73;;
19519;SDS011;9904;52.246;20.898;2023-11-21T10:40:11;37.03;;;16.37;;
19519;SDS011;9904;52.246;20.898;2023-11-21T10:42:39;47.73;;;18.43;;
19519;SDS011;9904;52.246;20.898;2023-11-21T10:45:10;34.53;;;16.47;;
19519;SDS011;9904;52.246;20.898;2023-11-21T10:47:43;42.83;;;18.33;;
19519;SDS011;9904;52.246;20.898;2023-11-21T10:50:11;42.83;;;18.23;;
19519;SDS011;9904;52.246;20.898;2023-11-21T10:52:41;42.23;;;17.90;;
19519;SDS011;9904;52.246;20.898;2023-11-21T10:55:17;40.70;;;19.53;;
19519;SDS011;9904;52.246;20.898;2023-11-21T10:57:53;42.30;;;17.77;;
19519;SDS011;9904;52.246;20.898;2023-11-21T11:00:20;35.80;;;16.87;;
19519;SDS011;9904;52.246;20.898;2023-11-21T11:02:50;36.37;;;17.40;;
19519;SDS011;9904;52.246;20.898;2023-11-21T11:05:22;42.13;;;17.13;;
19519;SDS011;9904;52.246;20.898;2023-11-21T11:07:56;40.63;;;17.30;;
19519;SDS011;9904;52.246;20.898;2023-11-21T11:10:35;35.67;;;16.43;;
19519;SDS011;9904;52.246;20.898;2023-11-21T11:13:02;38.47;;;17.03;;
19519;SDS011;9904;52.246;20.898;2023-11-21T11:15:30;36.90;;;16.97;;
19519;SDS011;9904;52.246;20.898;2023-11-21T11:17:57;39.57;;;17.27;;
19519;SDS011;9904;52.246;20.898;2023-11-21T11:20:26;37.27;;;17.60;;
19519;SDS011;9904;52.246;20.898;2023-11-21T11:26:06;42.10;;;18.20;;
19519;SDS011;9904;52.246;20.898;2023-11-21T11:28:47;37.77;;;17.23;;
19519;SDS011;9904;52.246;20.898;2023-11-21T11:34:32;37.37;;;16.80;;
19519;SDS011;9904;52.246;20.898;2023-11-21T11:37:05;41.40;;;17.43;;
19519;SDS011;9904;52.246;20.898;2023-11-21T11:39:42;44.93;;;18.33;;
19519;SDS011;9904;52.246;20.898;2023-11-21T11:42:16;43.90;;;18.07;;
19519;SDS011;9904;52.246;20.898;2023-11-21T11:44:47;37.13;;;17.77;;
19519;SDS011;9904;52.246;20.898;2023-11-21T11:47:27;44.10;;;19.43;;
19519;SDS011;9904;52.246;20.898;2023-11-21T11:50:02;40.83;;;17.73;;
19519;SDS011;9904;52.246;20.898;2023-11-21T11:55:17;39.30;;;16.43;;
19519;SDS011;9904;52.246;20.898;2023-11-21T11:57:46;37.20;;;17.57;;
19519;SDS011;9904;52.246;20.898;2023-11-21T12:00:21;40.70;;;17.90;;
19519;SDS011;9904;52.246;20.898;2023-11-21T12:02:52;38.93;;;17.53;;
19519;SDS011;9904;52.246;20.898;2023-11-21T12:05:25;40.73;;;18.47;;
19519;SDS011;9904;52.246;20.898;2023-11-21T12:07:57;38.47;;;16.90;;
19519;SDS011;9904;52.246;20.898;2023-11-21T12:10:28;34.63;;;17.13;;
19519;SDS011;9904;52.246;20.898;2023-11-21T12:13:01;35.53;;;17.00;;
19519;SDS011;9904;52.246;20.898;2023-11-21T12:15:34;39.07;;;16.70;;
19519;SDS011;9904;52.246;20.898;2023-11-21T12:18:07;33.00;;;16.27;;
19519;SDS011;9904;52.246;20.898;2023-11-21T12:20:34;37.40;;;17.10;;
19519;SDS011;9904;52.246;20.898;2023-11-21T12:23:06;42.10;;;18.50;;
19519;SDS011;9904;52.246;20.898;2023-11-21T12:25:39;41.13;;;19.50;;
19519;SDS011;9904;52.246;20.898;2023-11-21T12:28:09;43.10;;;19.93;;
19519;SDS011;9904;52.246;20.898;2023-11-21T12:30:37;38.80;;;17.87;;
19519;SDS011;9904;52.246;20.898;2023-11-21T12:33:05;45.07;;;19.17;;
19519;SDS011;9904;52.246;20.898;2023-11-21T12:35:35;42.57;;;18.13;;
19519;SDS011;9904;52.246;20.898;2023-11-21T12:38:03;32.57;;;16.20;;
19519;SDS011;9904;52.246;20.898;2023-11-21T12:40:32;37.60;;;17.60;;
19519;SDS011;9904;52.246;20.898;2023-11-21T12:42:59;37.63;;;17.47;;
19519;SDS011;9904;52.246;20.898;2023-11-21T12:45:28;37.63;;;16.63;;
19519;SDS011;9904;52.246;20.898;2023-11-21T12:48:02;37.77;;;17.20;;
19519;SDS011;9904;52.246;20.898;2023-11-21T12:50:35;39.20;;;16.87;;
19519;SDS011;9904;52.246;20.898;2023-11-21T12:53:12;39.47;;;17.73;;
19519;SDS011;9904;52.246;20.898;2023-11-21T12:55:39;35.77;;;16.57;;
19519;SDS011;9904;52.246;20.898;2023-11-21T12:58:09;40.40;;;18.30;;
19519;SDS011;9904;52.246;20.898;2023-11-21T13:03:15;38.80;;;18.57;;
19519;SDS011;9904;52.246;20.898;2023-11-21T13:05:46;41.43;;;16.20;;
19519;SDS011;9904;52.246;20.898;2023-11-21T13:08:22;46.80;;;15.87;;
19519;SDS011;9904;52.246;20.898;2023-11-21T13:10:54;39.73;;;17.07;;
19519;SDS011;9904;52.246;20.898;2023-11-21T13:13:24;35.93;;;14.27;;
19519;SDS011;9904;52.246;20.898;2023-11-21T13:15:59;36.60;;;15.70;;
19519;SDS011;9904;52.246;20.898;2023-11-21T13:18:28;33.63;;;15.63;;
19519;SDS011;9904;52.246;20.898;2023-11-21T13:21:04;36.17;;;15.63;;
19519;SDS011;9904;52.246;20.898;2023-11-21T13:23:36;39.80;;;18.50;;
19519;SDS011;9904;52.246;20.898;2023-11-21T13:26:04;48.23;;;20.47;;
19519;SDS011;9904;52.246;20.898;2023-11-21T13:28:33;42.67;;;20.33;;
19519;SDS011;9904;52.246;20.898;2023-11-21T13:31:06;36.90;;;17.40;;
19519;SDS011;9904;52.246;20.898;2023-11-21T13:33:37;40.13;;;18.97;;
19519;SDS011;9904;52.246;20.898;2023-11-21T13:36:07;41.00;;;19.80;;
19519;SDS011;9904;52.246;20.898;2023-11-21T13:38:36;46.33;;;19.87;;
19519;SDS011;9904;52.246;20.898;2023-11-21T13:41:04;49.27;;;21.00;;
19519;SDS011;9904;52.246;20.898;2023-11-21T13:43:34;36.30;;;16.73;;
19519;SDS011;9904;52.246;20.898;2023-11-21T13:46:00;39.73;;;18.67;;
19519;SDS011;9904;52.246;20.898;2023-11-21T13:48:35;35.60;;;16.03;;
19519;SDS011;9904;52.246;20.898;2023-11-21T13:51:09;32.13;;;16.10;;
19519;SDS011;9904;52.246;20.898;2023-11-21T13:53:47;40.10;;;17.80;;
19519;SDS011;9904;52.246;20.898;2023-11-21T13:56:18;36.37;;;17.13;;
19519;SDS011;9904;52.246;20.898;2023-11-21T13:58:52;40.73;;;18.90;;
19519;SDS011;9904;52.246;20.898;2023-11-21T14:01:26;37.93;;;18.50;;
19519;SDS011;9904;52.246;20.898;2023-11-21T14:03:59;41.20;;;20.00;;
19519;SDS011;9904;52.246;20.898;2023-11-21T14:09:18;39.03;;;17.63;;
19519;SDS011;9904;52.246;20.898;2023-11-21T14:12:03;40.20;;;17.50;;
19519;SDS011;9904;52.246;20.898;2023-11-21T14:14:56;34.70;;;16.70;;
19519;SDS011;9904;52.246;20.898;2023-11-21T14:17:26;40.17;;;16.23;;
19519;SDS011;9904;52.246;20.898;2023-11-21T14:19:53;35.90;;;16.87;;
19519;SDS011;9904;52.246;20.898;2023-11-21T14:22:22;36.73;;;17.13;;
19519;SDS011;9904;52.246;20.898;2023-11-21T14:24:49;41.70;;;16.87;;
19519;SDS011;9904;52.246;20.898;2023-11-21T14:27:18;37.03;;;17.40;;
19519;SDS011;9904;52.246;20.898;2023-11-21T14:29:45;36.97;;;17.23;;
19519;SDS011;9904;52.246;20.898;2023-11-21T14:32:12;38.10;;;17.13;;
19519;SDS011;9904;52.246;20.898;2023-11-21T14:34:40;31.17;;;15.13;;
19519;SDS011;9904;52.246;20.898;2023-11-21T14:37:10;35.13;;;15.43;;
19519;SDS011;9904;52.246;20.898;2023-11-21T14:39:41;35.40;;;16.33;;
19519;SDS011;9904;52.246;20.898;2023-11-21T14:42:12;37.63;;;16.17;;
19519;SDS011;9904;52.246;20.898;2023-11-21T14:45:15;35.50;;;15.23;;
19519;SDS011;9904;52.246;20.898;2023-11-21T14:47:46;32.70;;;14.97;;
19519;SDS011;9904;52.246;20.898;2023-11-21T14:50:25;33.17;;;15.13;;
19519;SDS011;9904;52.246;20.898;2023-11-21T14:53:08;34.47;;;16.77;;